SKW4087 KLAX-KSAN
Flight info
| Callsign | SKW4087 |
|---|---|
| Flight time | 0h 31m |
| Altitude | 13000 |
| Route | LAXX1 MZB |
| Aircraft | E75L/M-SDE3GILORVW/S |
Departure
| Time | 2026-05-07 01:53 |
|---|---|
| Airport | Los Angeles International Airport (KLAX) |
Arrival
| Time | 2026-05-07 02:24 |
|---|---|
| Airport | San Diego International Airport (KSAN) |
| Time | Latitude | Longitude | Altitude | Speed | Heading |
|---|---|---|---|---|---|
| 2026-05-07 01:33 | 33.94613 | -118.40324 | 90 ft | 0 kts | 249° |
| 2026-05-07 01:45 | 33.94614 | -118.40321 | 93 ft | 2 kts | 249° |
| 2026-05-07 01:45 | 33.94623 | -118.40292 | 92 ft | 2 kts | 249° |
| 2026-05-07 01:45 | 33.94631 | -118.40267 | 92 ft | 4 kts | 251° |
| 2026-05-07 01:46 | 33.94629 | -118.40242 | 92 ft | 3 kts | 323° |
| 2026-05-07 01:46 | 33.94645 | -118.40250 | 90 ft | 4 kts | 350° |
| 2026-05-07 01:46 | 33.94672 | -118.40252 | 90 ft | 4 kts | 359° |
| 2026-05-07 01:46 | 33.94700 | -118.40253 | 90 ft | 4 kts | 356° |
| 2026-05-07 01:47 | 33.94719 | -118.40255 | 90 ft | 0 kts | 353° |
| 2026-05-07 01:49 | 33.94730 | -118.40257 | 93 ft | 3 kts | 355° |
| 2026-05-07 01:49 | 33.94766 | -118.40262 | 92 ft | 7 kts | 354° |
| 2026-05-07 01:49 | 33.94817 | -118.40245 | 91 ft | 9 kts | 50° |
| 2026-05-07 01:50 | 33.94831 | -118.40165 | 91 ft | 11 kts | 84° |
| 2026-05-07 01:50 | 33.94845 | -118.40091 | 91 ft | 8 kts | 48° |
| 2026-05-07 01:50 | 33.94903 | -118.40073 | 93 ft | 9 kts | 28° |
| 2026-05-07 01:50 | 33.94923 | -118.40001 | 91 ft | 9 kts | 87° |
| 2026-05-07 01:51 | 33.94933 | -118.39941 | 92 ft | 7 kts | 59° |
| 2026-05-07 01:51 | 33.94948 | -118.39923 | 93 ft | 0 kts | 34° |
| 2026-05-07 01:51 | 33.94948 | -118.39922 | 93 ft | 0 kts | 34° |
| 2026-05-07 01:51 | 33.94954 | -118.39918 | 92 ft | 2 kts | 24° |
| 2026-05-07 01:52 | 33.94979 | -118.39914 | 91 ft | 5 kts | 360° |
| 2026-05-07 01:52 | 33.95024 | -118.39922 | 93 ft | 8 kts | 341° |
| 2026-05-07 01:52 | 33.95040 | -118.39977 | 91 ft | 8 kts | 264° |
| 2026-05-07 01:52 | 33.95029 | -118.40090 | 93 ft | 28 kts | 265° |
| 2026-05-07 01:53 | 33.95002 | -118.40372 | 95 ft | 75 kts | 263° |
| 2026-05-07 01:53 | 33.94905 | -118.41270 | 111 ft | 136 kts | 262° |
| 2026-05-07 01:53 | 33.94773 | -118.42461 | 672 ft | 149 kts | 262° |
| 2026-05-07 01:53 | 33.94550 | -118.44167 | 1535 ft | 172 kts | 260° |
| 2026-05-07 01:54 | 33.94398 | -118.45200 | 1941 ft | 200 kts | 261° |
| 2026-05-07 01:54 | 33.94154 | -118.47067 | 2361 ft | 251 kts | 263° |
| 2026-05-07 01:54 | 33.93881 | -118.49065 | 2760 ft | 242 kts | 262° |
| 2026-05-07 01:54 | 33.93338 | -118.51046 | 3178 ft | 257 kts | 237° |
| 2026-05-07 01:55 | 33.91969 | -118.52457 | 3638 ft | 267 kts | 204° |
| 2026-05-07 01:55 | 33.90171 | -118.52995 | 4114 ft | 274 kts | 190° |
| 2026-05-07 01:55 | 33.88260 | -118.53397 | 4639 ft | 282 kts | 191° |
| 2026-05-07 01:55 | 33.86324 | -118.53812 | 5154 ft | 284 kts | 191° |
| 2026-05-07 01:56 | 33.84364 | -118.54243 | 5654 ft | 288 kts | 191° |
| 2026-05-07 01:56 | 33.82401 | -118.54683 | 6167 ft | 291 kts | 191° |
| 2026-05-07 01:56 | 33.80415 | -118.55142 | 6670 ft | 289 kts | 191° |
| 2026-05-07 01:56 | 33.78414 | -118.55615 | 7173 ft | 295 kts | 191° |
| 2026-05-07 01:57 | 33.76396 | -118.56112 | 7682 ft | 297 kts | 191° |
| 2026-05-07 01:57 | 33.74360 | -118.56489 | 8199 ft | 297 kts | 178° |
| 2026-05-07 01:57 | 33.72814 | -118.56122 | 8587 ft | 295 kts | 154° |
| 2026-05-07 01:57 | 33.71228 | -118.54781 | 9108 ft | 290 kts | 131° |
| 2026-05-07 01:58 | 33.69801 | -118.53043 | 9663 ft | 292 kts | 130° |
| 2026-05-07 01:58 | 33.68351 | -118.51312 | 10193 ft | 293 kts | 131° |
| 2026-05-07 01:58 | 33.66901 | -118.49596 | 10681 ft | 299 kts | 131° |
| 2026-05-07 01:58 | 33.65395 | -118.47803 | 11185 ft | 309 kts | 131° |
| 2026-05-07 01:59 | 33.63850 | -118.45952 | 11702 ft | 317 kts | 131° |
| 2026-05-07 01:59 | 33.62280 | -118.44045 | 12227 ft | 321 kts | 128° |
| 2026-05-07 01:59 | 33.61078 | -118.41804 | 12746 ft | 320 kts | 112° |
| 2026-05-07 01:59 | 33.60156 | -118.39381 | 13145 ft | 326 kts | 111° |
| 2026-05-07 02:00 | 33.59216 | -118.36889 | 13079 ft | 326 kts | 111° |
| 2026-05-07 02:00 | 33.58279 | -118.34423 | 13047 ft | 322 kts | 111° |
| 2026-05-07 02:00 | 33.57344 | -118.31976 | 13021 ft | 322 kts | 111° |
| 2026-05-07 02:00 | 33.56414 | -118.29542 | 13016 ft | 322 kts | 111° |
| 2026-05-07 02:01 | 33.55489 | -118.27123 | 13018 ft | 321 kts | 111° |
| 2026-05-07 02:01 | 33.54554 | -118.24686 | 13016 ft | 321 kts | 111° |
| 2026-05-07 02:01 | 33.53621 | -118.22251 | 13014 ft | 321 kts | 111° |
| 2026-05-07 02:01 | 33.52687 | -118.19816 | 13016 ft | 321 kts | 111° |
| 2026-05-07 02:02 | 33.51755 | -118.17379 | 13009 ft | 321 kts | 111° |
| 2026-05-07 02:02 | 33.50823 | -118.14946 | 12985 ft | 321 kts | 111° |
| 2026-05-07 02:02 | 33.49906 | -118.12548 | 12984 ft | 321 kts | 111° |
| 2026-05-07 02:02 | 33.48975 | -118.10116 | 12973 ft | 321 kts | 111° |
| 2026-05-07 02:03 | 33.48045 | -118.07688 | 12974 ft | 320 kts | 111° |
| 2026-05-07 02:03 | 33.46911 | -118.05371 | 12986 ft | 324 kts | 120° |
| 2026-05-07 02:03 | 33.45615 | -118.03144 | 12977 ft | 324 kts | 121° |
| 2026-05-07 02:03 | 33.44320 | -118.00933 | 12975 ft | 324 kts | 121° |
| 2026-05-07 02:04 | 33.43035 | -117.98737 | 12975 ft | 324 kts | 121° |
| 2026-05-07 02:04 | 33.41734 | -117.96525 | 12974 ft | 324 kts | 121° |
| 2026-05-07 02:04 | 33.40428 | -117.94312 | 12980 ft | 325 kts | 121° |
| 2026-05-07 02:04 | 33.39136 | -117.92127 | 12973 ft | 325 kts | 121° |
| 2026-05-07 02:05 | 33.37827 | -117.89914 | 12974 ft | 325 kts | 121° |
| 2026-05-07 02:05 | 33.36518 | -117.87705 | 12974 ft | 325 kts | 121° |
| 2026-05-07 02:05 | 33.35225 | -117.85525 | 12977 ft | 325 kts | 121° |
| 2026-05-07 02:05 | 33.33913 | -117.83312 | 12977 ft | 325 kts | 121° |
| 2026-05-07 02:06 | 33.32607 | -117.81112 | 12975 ft | 325 kts | 121° |
| 2026-05-07 02:06 | 33.31299 | -117.78908 | 12977 ft | 325 kts | 121° |
| 2026-05-07 02:06 | 33.29988 | -117.76703 | 12977 ft | 325 kts | 121° |
| 2026-05-07 02:06 | 33.28679 | -117.74501 | 12977 ft | 325 kts | 121° |
| 2026-05-07 02:07 | 33.27368 | -117.72298 | 12979 ft | 325 kts | 121° |
| 2026-05-07 02:07 | 33.24766 | -117.67929 | 12976 ft | 325 kts | 121° |
| 2026-05-07 02:07 | 33.23450 | -117.65720 | 12979 ft | 326 kts | 121° |
| 2026-05-07 02:08 | 33.22135 | -117.63515 | 12979 ft | 325 kts | 121° |
| 2026-05-07 02:08 | 33.20818 | -117.61309 | 12979 ft | 326 kts | 121° |
| 2026-05-07 02:08 | 33.19502 | -117.59105 | 12979 ft | 326 kts | 121° |
| 2026-05-07 02:08 | 33.18184 | -117.56899 | 12979 ft | 326 kts | 121° |
| 2026-05-07 02:09 | 33.16874 | -117.54706 | 12716 ft | 329 kts | 121° |
| 2026-05-07 02:09 | 33.15548 | -117.52493 | 12374 ft | 325 kts | 121° |
| 2026-05-07 02:09 | 33.14238 | -117.50309 | 12046 ft | 322 kts | 121° |
| 2026-05-07 02:09 | 33.12938 | -117.48141 | 11730 ft | 320 kts | 121° |
| 2026-05-07 02:10 | 33.11644 | -117.45982 | 11409 ft | 319 kts | 121° |
| 2026-05-07 02:10 | 33.10349 | -117.43825 | 11092 ft | 319 kts | 121° |
| 2026-05-07 02:10 | 33.09058 | -117.41675 | 10776 ft | 318 kts | 121° |
| 2026-05-07 02:10 | 33.07786 | -117.39559 | 10472 ft | 317 kts | 121° |
| 2026-05-07 02:11 | 33.06501 | -117.37421 | 10154 ft | 314 kts | 121° |
| 2026-05-07 02:11 | 33.05240 | -117.35330 | 9802 ft | 305 kts | 122° |
| 2026-05-07 02:11 | 33.03993 | -117.33306 | 9434 ft | 299 kts | 127° |
| 2026-05-07 02:11 | 33.02367 | -117.31824 | 9062 ft | 300 kts | 153° |
| 2026-05-07 02:12 | 33.00374 | -117.31099 | 8720 ft | 297 kts | 164° |
| 2026-05-07 02:12 | 32.98380 | -117.30507 | 8386 ft | 294 kts | 162° |
| 2026-05-07 02:12 | 32.96415 | -117.29829 | 8042 ft | 292 kts | 161° |
| 2026-05-07 02:12 | 32.94472 | -117.29104 | 7688 ft | 291 kts | 160° |
| 2026-05-07 02:13 | 32.92575 | -117.28353 | 7351 ft | 290 kts | 159° |
| 2026-05-07 02:13 | 32.90657 | -117.27580 | 7021 ft | 288 kts | 159° |
| 2026-05-07 02:13 | 32.88759 | -117.26812 | 6691 ft | 287 kts | 159° |
| 2026-05-07 02:13 | 32.86868 | -117.26046 | 6362 ft | 286 kts | 159° |
| 2026-05-07 02:14 | 32.84983 | -117.25281 | 6014 ft | 285 kts | 160° |
| 2026-05-07 02:14 | 32.83164 | -117.24543 | 6285 ft | 268 kts | 160° |
| 2026-05-07 02:14 | 32.81410 | -117.23802 | 6914 ft | 278 kts | 155° |
| 2026-05-07 02:14 | 32.79767 | -117.22527 | 6926 ft | 284 kts | 134° |
| 2026-05-07 02:15 | 32.78538 | -117.20692 | 6771 ft | 284 kts | 122° |
| 2026-05-07 02:15 | 32.77631 | -117.18643 | 6467 ft | 281 kts | 106° |
| 2026-05-07 02:15 | 32.77107 | -117.16435 | 6342 ft | 275 kts | 99° |
| 2026-05-07 02:15 | 32.76655 | -117.14210 | 5998 ft | 279 kts | 104° |
| 2026-05-07 02:16 | 32.76021 | -117.12023 | 5637 ft | 280 kts | 110° |
| 2026-05-07 02:16 | 32.75218 | -117.09911 | 5229 ft | 282 kts | 114° |
| 2026-05-07 02:16 | 32.74385 | -117.07848 | 5026 ft | 272 kts | 111° |
| 2026-05-07 02:16 | 32.73795 | -117.05780 | 4968 ft | 258 kts | 102° |
| 2026-05-07 02:17 | 32.73378 | -117.03764 | 4883 ft | 248 kts | 101° |
| 2026-05-07 02:17 | 32.72968 | -117.01752 | 4512 ft | 250 kts | 101° |
| 2026-05-07 02:17 | 32.72609 | -116.99772 | 4356 ft | 242 kts | 98° |
| 2026-05-07 02:17 | 32.72312 | -116.97810 | 3971 ft | 246 kts | 99° |
| 2026-05-07 02:18 | 32.72016 | -116.95827 | 3684 ft | 244 kts | 98° |
| 2026-05-07 02:18 | 32.71707 | -116.93883 | 3620 ft | 233 kts | 102° |
| 2026-05-07 02:18 | 32.71026 | -116.92212 | 3683 ft | 230 kts | 128° |
| 2026-05-07 02:18 | 32.69740 | -116.91089 | 3605 ft | 229 kts | 161° |
| 2026-05-07 02:19 | 32.68142 | -116.90860 | 3349 ft | 240 kts | 189° |
| 2026-05-07 02:19 | 32.66683 | -116.91599 | 3277 ft | 230 kts | 220° |
| 2026-05-07 02:19 | 32.65750 | -116.93077 | 3288 ft | 221 kts | 249° |
| 2026-05-07 02:19 | 32.65319 | -116.94847 | 3043 ft | 221 kts | 271° |
| 2026-05-07 02:20 | 32.65612 | -116.96585 | 3017 ft | 214 kts | 293° |
| 2026-05-07 02:20 | 32.66158 | -116.98216 | 2961 ft | 216 kts | 290° |
| 2026-05-07 02:20 | 32.66618 | -116.99809 | 3126 ft | 207 kts | 292° |
| 2026-05-07 02:20 | 32.67171 | -117.01430 | 3264 ft | 216 kts | 296° |
| 2026-05-07 02:21 | 32.67802 | -117.03048 | 3208 ft | 223 kts | 297° |
| 2026-05-07 02:21 | 32.68521 | -117.04685 | 3054 ft | 222 kts | 299° |
| 2026-05-07 02:21 | 32.69235 | -117.06212 | 3118 ft | 199 kts | 300° |
| 2026-05-07 02:21 | 32.69904 | -117.07623 | 2864 ft | 191 kts | 300° |
| 2026-05-07 02:22 | 32.70522 | -117.08953 | 2548 ft | 181 kts | 298° |
| 2026-05-07 02:22 | 32.71098 | -117.10253 | 2113 ft | 172 kts | 297° |
| 2026-05-07 02:22 | 32.71556 | -117.11519 | 1694 ft | 162 kts | 292° |
| 2026-05-07 02:22 | 32.71855 | -117.12748 | 1326 ft | 154 kts | 284° |
| 2026-05-07 02:23 | 32.72117 | -117.13949 | 1016 ft | 147 kts | 287° |
| 2026-05-07 02:23 | 32.72421 | -117.15097 | 752 ft | 142 kts | 288° |
| 2026-05-07 02:23 | 32.72695 | -117.16201 | 490 ft | 139 kts | 287° |
| 2026-05-07 02:23 | 32.72956 | -117.17317 | 182 ft | 140 kts | 288° |
| 2026-05-07 02:24 | 32.73214 | -117.18377 | 26 ft | 125 kts | 288° |
| 2026-05-07 02:24 | 32.73413 | -117.19187 | 17 ft | 77 kts | 287° |
| 2026-05-07 02:24 | 32.73536 | -117.19667 | 24 ft | 53 kts | 286° |
| 2026-05-07 02:24 | 32.73625 | -117.20060 | 22 ft | 47 kts | 285° |
| 2026-05-07 02:25 | 32.73684 | -117.20341 | 16 ft | 24 kts | 267° |
| 2026-05-07 02:25 | 32.73607 | -117.20425 | 16 ft | 9 kts | 195° |
| 2026-05-07 02:25 | 32.73589 | -117.20425 | 17 ft | 1 kts | 133° |
| 2026-05-07 02:25 | 32.73588 | -117.20415 | 16 ft | 5 kts | 91° |
| 2026-05-07 02:26 | 32.73584 | -117.20374 | 16 ft | 6 kts | 88° |
| 2026-05-07 02:26 | 32.73582 | -117.20318 | 18 ft | 8 kts | 102° |
| 2026-05-07 02:26 | 32.73565 | -117.20254 | 20 ft | 8 kts | 112° |
| 2026-05-07 02:26 | 32.73537 | -117.20233 | 20 ft | 8 kts | 176° |
| 2026-05-07 02:27 | 32.73472 | -117.20253 | 19 ft | 12 kts | 198° |
| 2026-05-07 02:27 | 32.73380 | -117.20274 | 19 ft | 15 kts | 176° |
| 2026-05-07 02:27 | 32.73332 | -117.20246 | 19 ft | 7 kts | 104° |
| 2026-05-07 02:27 | 32.73337 | -117.20193 | 19 ft | 4 kts | 82° |
| 2026-05-07 02:28 | 32.73338 | -117.20182 | 19 ft | 0 kts | 81° |